Time;durP1;ratioP1;P1;durP2;ratioP2;P2;SDS_P1;SDS_P2;PMS_P1;PMS_P2;Temp;Humidity;BMP_temperature;BMP_pressure;BME280_temperature;BME280_humidity;BME280_pressure;Samples;Min_cycle;Max_cycle;Signal;HPM_P1;HPM_P2
2022/06/10 00:01:09;;;;;;;6.30;2.97;;;;;;;14.42;100.00;90207.44;5072921;28;20482;-67
2022/06/10 00:03:36;;;;;;;2.97;2.47;;;;;;;14.41;100.00;90210.47;5073173;28;20020;-67
2022/06/10 00:06:04;;;;;;;3.58;2.75;;;;;;;14.39;100.00;90208.13;5072648;28;20099;-67
2022/06/10 00:08:36;;;;;;;3.33;2.50;;;;;;;14.32;100.00;90211.41;5073041;28;20579;-67
2022/06/10 00:11:04;;;;;;;6.85;2.90;;;;;;;14.31;100.00;90206.41;5072730;28;20036;-66
2022/06/10 00:13:32;;;;;;;3.95;2.38;;;;;;;14.35;100.00;90201.91;5072759;28;20033;-67
2022/06/10 00:15:58;;;;;;;4.20;2.53;;;;;;;14.26;100.00;90185.28;5072697;28;20029;-67
2022/06/10 00:18:27;;;;;;;1.98;1.80;;;;;;;14.27;100.00;90195.63;5054536;28;20085;-67
2022/06/10 00:20:52;;;;;;;4.32;2.58;;;;;;;14.22;100.00;90192.47;5071951;28;20059;-67
2022/06/10 00:23:18;;;;;;;2.85;2.22;;;;;;;14.24;100.00;90196.34;5072593;28;20075;-67
2022/06/10 00:25:45;;;;;;;3.67;2.38;;;;;;;14.21;100.00;90198.94;5072681;28;20089;-67
2022/06/10 00:28:11;;;;;;;3.45;2.80;;;;;;;14.31;100.00;90201.06;5072519;28;20511;-67
2022/06/10 00:30:37;;;;;;;3.10;2.80;;;;;;;14.33;100.00;90198.81;5072281;28;20059;-68
2022/06/10 00:33:03;;;;;;;3.90;3.05;;;;;;;14.39;100.00;90202.78;5072380;28;20056;-67
2022/06/10 00:35:29;;;;;;;5.30;2.65;;;;;;;14.28;100.00;90205.22;5072368;28;20028;-67
2022/06/10 00:37:55;;;;;;;2.60;2.10;;;;;;;14.32;100.00;90198.03;5072272;28;20025;-67
2022/06/10 00:40:27;;;;;;;3.08;2.30;;;;;;;14.29;100.00;90198.75;5072176;28;20028;-67
2022/06/10 00:42:56;;;;;;;2.63;2.03;;;;;;;14.28;100.00;90188.38;5072228;28;20029;-67
2022/06/10 00:45:52;;;;;;;2.78;2.17;;;;;;;14.26;100.00;90190.63;5072101;28;20127;-66
2022/06/10 00:48:36;;;;;;;3.10;2.45;;;;;;;14.26;100.00;90190.63;5072101;28;20464;-67
2022/06/10 00:51:14;;;;;;;3.15;2.35;;;;;;;14.27;100.00;90189.50;5071945;28;20054;-67
2022/06/10 00:53:41;;;;;;;3.05;2.60;;;;;;;14.39;100.00;90186.72;5072224;28;20072;-66
2022/06/10 00:56:15;;;;;;;2.40;2.20;;;;;;;14.29;100.00;90187.25;5072168;28;20024;-66
2022/06/10 00:59:02;;;;;;;4.68;2.58;;;;;;;14.27;100.00;90190.28;5071873;28;20040;-66
2022/06/10 01:01:31;;;;;;;3.40;2.28;;;;;;;14.25;100.00;90187.19;5071730;28;20031;-66
2022/06/10 01:03:58;;;;;;;2.08;1.88;;;;;;;14.21;100.00;90185.56;5071823;28;20043;-66
2022/06/10 01:06:24;;;;;;;2.45;2.13;;;;;;;14.12;100.00;90184.97;5071521;28;20048;-66
2022/06/10 01:08:51;;;;;;;2.40;2.08;;;;;;;14.05;100.00;90188.25;5071882;28;20047;-66
2022/06/10 01:11:34;;;;;;;3.15;2.08;;;;;;;14.03;100.00;90190.47;5071551;28;20029;-66
2022/06/10 01:14:18;;;;;;;2.90;2.17;;;;;;;13.98;100.00;90186.19;5071851;28;20458;-66
2022/06/10 01:17:01;;;;;;;2.28;1.77;;;;;;;13.96;100.00;90188.44;5071488;28;20119;-66
2022/06/10 01:19:39;;;;;;;2.05;1.92;;;;;;;14.00;100.00;90183.94;5071547;28;20024;-67
2022/06/10 01:22:23;;;;;;;3.85;2.58;;;;;;;13.95;100.00;90178.88;5071468;28;20115;-66
2022/06/10 01:25:07;;;;;;;2.63;1.98;;;;;;;13.98;100.00;90182.72;5071462;28;20021;-66
2022/06/10 01:28:09;;;;;;;2.63;2.25;;;;;;;13.91;100.00;90185.25;5071381;28;20032;-67
2022/06/10 01:30:56;;;;;;;2.50;2.25;;;;;;;13.91;100.00;90185.25;5070530;28;20104;-67
2022/06/10 01:33:27;;;;;;;2.15;2.00;;;;;;;13.97;100.00;90183.84;5071235;28;20024;-67
2022/06/10 01:36:14;;;;;;;2.90;2.33;;;;;;;13.83;100.00;90184.28;5071239;28;20410;-67
2022/06/10 01:38:48;;;;;;;3.42;2.45;;;;;;;13.83;100.00;90186.19;5071238;28;20027;-67
2022/06/10 01:41:58;;;;;;;2.88;2.30;;;;;;;13.79;100.00;90194.91;5071165;28;20032;-66
2022/06/10 01:44:43;;;;;;;3.58;2.22;;;;;;;13.68;100.00;90190.41;5067048;28;20040;-66
2022/06/10 01:47:11;;;;;;;2.80;2.22;;;;;;;13.65;100.00;90191.13;5071362;28;20025;-66
2022/06/10 01:49:48;;;;;;;4.07;2.10;;;;;;;13.68;100.00;90193.09;5071068;28;20558;-67
2022/06/10 01:52:23;;;;;;;2.58;2.05;;;;;;;13.67;100.00;90191.53;5071070;28;20526;-66
2022/06/10 01:54:56;;;;;;;3.17;2.35;;;;;;;13.67;100.00;90194.22;5071286;28;20024;-66
2022/06/10 01:57:27;;;;;;;3.38;2.15;;;;;;;13.72;100.00;90193.94;5071105;28;20028;-66
2022/06/10 02:00:00;;;;;;;3.47;2.13;;;;;;;13.75;100.00;90201.31;5070955;28;20131;-66
2022/06/10 02:02:31;;;;;;;2.88;2.03;;;;;;;13.72;100.00;90196.63;5071008;28;20032;-67
2022/06/10 02:05:19;;;;;;;3.13;2.30;;;;;;;13.68;100.00;90199.22;5195719;23;20041;-65
2022/06/10 02:08:20;;;;;;;4.57;3.20;;;;;;;13.73;100.00;90201.66;5011496;28;20033;-65
2022/06/10 02:10:59;;;;;;;4.47;3.42;;;;;;;13.71;100.00;90200.41;5010802;28;20426;-66
2022/06/10 02:13:52;;;;;;;4.95;3.60;;;;;;;13.75;100.00;90201.31;5011242;28;20030;-65
2022/06/10 02:16:22;;;;;;;6.38;3.63;;;;;;;13.72;100.00;90201.97;5005628;28;20042;-65
2022/06/10 02:19:10;;;;;;;5.15;3.25;;;;;;;13.67;100.00;90197.66;5011156;28;20089;-65
2022/06/10 02:21:44;;;;;;;3.38;3.05;;;;;;;13.71;100.00;90211.09;5011207;28;20033;-65
2022/06/10 02:24:25;;;;;;;3.50;3.00;;;;;;;13.68;100.00;90220.59;5010994;28;20061;-66
2022/06/10 02:26:52;;;;;;;5.50;2.97;;;;;;;13.69;100.00;90222.16;5011090;28;20025;-65
2022/06/10 02:29:24;;;;;;;6.90;2.88;;;;;;;13.71;100.00;90217.22;5011057;28;20034;-65
2022/06/10 02:31:57;;;;;;;3.47;2.80;;;;;;;13.70;100.00;90220.25;5011294;28;20045;-66
2022/06/10 02:34:24;;;;;;;5.10;2.63;;;;;;;13.71;100.00;90232.50;5010949;28;20030;-66
2022/06/10 02:36:58;;;;;;;3.40;2.55;;;;;;;13.71;100.00;90227.16;4993360;28;20419;-65
2022/06/10 02:39:31;;;;;;;3.83;2.60;;;;;;;13.63;100.00;90228.88;5011044;28;20065;-65
2022/06/10 02:42:09;;;;;;;4.13;2.63;;;;;;;13.69;100.00;90226.72;5011072;28;20026;-66
2022/06/10 02:45:19;;;;;;;3.97;2.47;;;;;;;13.70;100.00;90225.59;5014721;28;20500;-65
2022/06/10 02:47:50;;;;;;;3.90;2.53;;;;;;;13.66;100.00;90236.19;5014726;28;20116;-65
2022/06/10 02:50:16;;;;;;;5.45;2.95;;;;;;;13.69;100.00;90224.03;5014572;28;20572;-66
2022/06/10 02:52:43;;;;;;;6.68;2.55;;;;;;;13.73;100.00;90232.94;5014668;28;20101;-65
2022/06/10 02:55:18;;;;;;;4.97;2.55;;;;;;;13.74;100.00;90237.19;5014736;28;20034;-65
2022/06/10 03:03:58;;;;;;;;;;;;;;;13.74;100.00;90247.88;5014730;28;20113;-65
2022/06/10 03:06:37;;;;;;;2.83;2.47;;;;;;;13.65;100.00;90256.03;5009032;28;19991;-66
2022/06/10 03:09:15;;;;;;;3.55;2.53;;;;;;;13.77;100.00;90247.16;5014267;28;20029;-65
2022/06/10 03:11:54;;;;;;;5.50;3.83;;;;;;;13.90;100.00;90251.31;5014261;28;20481;-66
2022/06/10 03:14:25;;;;;;;9.10;4.40;;;;;;;13.92;100.00;90249.06;5014073;28;20415;-66
2022/06/10 03:17:18;;;;;;;4.97;3.30;;;;;;;13.94;100.00;90249.50;5014165;28;20105;-66
2022/06/10 03:19:43;;;;;;;5.15;3.28;;;;;;;13.97;100.00;90243.47;5014333;28;20770;-66
2022/06/10 03:22:14;;;;;;;4.03;2.88;;;;;;;13.91;100.00;90246.75;5014081;28;20104;-66
2022/06/10 03:24:43;;;;;;;5.53;2.67;;;;;;;13.86;100.00;90238.97;5013925;28;20084;-66
2022/06/10 03:27:21;;;;;;;2.63;2.10;;;;;;;13.88;100.00;90248.19;5014143;28;20045;-65
2022/06/10 03:29:53;;;;;;;5.68;2.50;;;;;;;13.77;100.00;90231.13;5013943;28;20034;-66
2022/06/10 03:32:29;;;;;;;4.03;3.50;;;;;;;13.76;100.00;90238.38;5013878;28;20026;-65
2022/06/10 03:35:29;;;;;;;5.32;4.75;;;;;;;13.77;100.00;90231.91;5013836;28;20026;-65
2022/06/10 03:37:56;;;;;;;3.88;3.47;;;;;;;13.74;100.00;90245.19;5000440;28;20065;-66
2022/06/10 03:40:25;;;;;;;6.05;3.63;;;;;;;13.87;100.00;90251.22;5013785;28;20109;-67
2022/06/10 03:42:55;;;;;;;4.85;3.13;;;;;;;13.88;100.00;90242.84;5036486;28;20507;-68
2022/06/10 03:45:41;;;;;;;2.55;2.35;;;;;;;13.81;100.00;90242.69;5033190;28;20167;-68
2022/06/10 03:48:07;;;;;;;4.32;2.25;;;;;;;13.66;100.00;90251.47;5033339;28;20068;-67
2022/06/10 03:50:37;;;;;;;6.93;4.80;;;;;;;13.58;100.00;90263.88;5032608;28;20707;-68
2022/06/10 03:53:04;;;;;;;9.70;5.57;;;;;;;13.62;100.00;90261.28;5035663;28;20061;-69
2022/06/10 03:55:29;;;;;;;6.43;2.60;;;;;;;13.73;100.00;90265.81;5036000;28;20474;-69
2022/06/10 03:57:55;;;;;;;3.22;2.85;;;;;;;13.85;100.00;90245.44;5030113;28;20021;-69
2022/06/10 04:00:25;;;;;;;4.20;3.33;;;;;;;14.03;100.00;90252.00;5033089;28;20167;-69
2022/06/10 04:02:51;;;;;;;3.67;2.88;;;;;;;14.14;100.00;90255.72;5033302;28;20025;-69
2022/06/10 04:05:18;;;;;;;3.42;2.72;;;;;;;14.26;100.00;90252.94;5032595;28;20534;-68
2022/06/10 04:07:43;;;;;;;3.40;2.97;;;;;;;14.38;100.00;90252.84;5033204;28;20119;-68
2022/06/10 04:10:20;;;;;;;3.50;2.83;;;;;;;14.42;100.00;90250.25;5032979;28;20502;-68
2022/06/10 04:12:46;;;;;;;4.40;3.17;;;;;;;14.39;100.00;90251.72;5019358;28;20036;-68
2022/06/10 04:15:15;;;;;;;4.18;2.88;;;;;;;14.43;100.00;90240.31;5013081;28;20018;-69
2022/06/10 04:17:43;;;;;;;5.07;3.55;;;;;;;14.52;100.00;90236.38;5013031;28;20140;-69
2022/06/10 04:20:15;;;;;;;7.05;4.40;;;;;;;14.71;100.00;90248.25;5028348;28;20033;-69
2022/06/10 04:22:40;;;;;;;6.85;3.85;;;;;;;14.70;100.00;90244.00;5032594;28;20037;-69
2022/06/10 04:25:06;;;;;;;7.70;2.75;;;;;;;14.70;100.00;90241.34;5032502;28;20040;-68
2022/06/10 04:27:31;;;;;;;5.35;3.33;;;;;;;14.68;100.00;90253.16;5014295;28;20068;-68
2022/06/10 04:29:58;;;;;;;4.60;3.25;;;;;;;14.81;100.00;90258.38;5032560;28;20025;-68
2022/06/10 04:32:23;;;;;;;4.88;3.25;;;;;;;14.86;100.00;90258.13;5032131;28;20533;-69
2022/06/10 04:34:49;;;;;;;6.68;3.95;;;;;;;14.93;100.00;90261.72;5018362;28;20034;-68
2022/06/10 04:37:14;;;;;;;5.40;3.95;;;;;;;15.14;100.00;90261.38;5012637;28;20551;-69
2022/06/10 04:39:40;;;;;;;6.63;4.22;;;;;;;15.40;100.00;90263.44;5012648;28;20120;-69
2022/06/10 04:42:06;;;;;;;5.88;3.40;;;;;;;15.48;100.00;90256.31;5012583;28;20108;-68
2022/06/10 04:44:31;;;;;;;6.03;4.00;;;;;;;15.36;100.00;90259.91;5027828;28;20081;-68
2022/06/10 04:46:57;;;;;;;4.43;3.55;;;;;;;15.28;100.00;90264.34;5032099;28;20029;-68
2022/06/10 04:49:22;;;;;;;5.93;3.60;;;;;;;15.49;100.00;90263.22;5032173;28;20060;-68
2022/06/10 04:51:48;;;;;;;4.32;3.42;;;;;;;15.65;100.00;90272.00;5032079;28;20033;-68
2022/06/10 04:54:13;;;;;;;7.03;4.70;;;;;;;15.69;100.00;90267.47;5031995;28;20029;-68
2022/06/10 04:56:39;;;;;;;7.85;4.82;;;;;;;15.95;100.00;90263.34;5032069;28;20113;-68
2022/06/10 04:59:04;;;;;;;5.82;3.90;;;;;;;16.67;100.00;90272.19;5032043;28;20447;-68
2022/06/10 05:01:30;;;;;;;7.53;4.75;;;;;;;17.14;100.00;90273.63;5032031;28;20037;-68
2022/06/10 05:03:55;;;;;;;5.82;3.75;;;;;;;17.24;100.00;90256.88;5031912;28;20119;-68
2022/06/10 05:06:21;;;;;;;5.93;3.72;;;;;;;17.29;100.00;90269.97;5031435;28;20050;-68
2022/06/10 05:08:47;;;;;;;3.78;3.05;;;;;;;17.14;100.00;90273.63;5031862;28;20033;-69
2022/06/10 05:11:13;;;;;;;3.70;2.67;;;;;;;17.00;100.00;90271.50;5031755;28;20065;-68
2022/06/10 05:13:38;;;;;;;2.88;2.35;;;;;;;16.98;100.00;90273.00;5031740;28;20025;-67
2022/06/10 05:16:04;;;;;;;4.47;2.70;;;;;;;17.17;100.00;90278.25;5031618;28;20506;-69
2022/06/10 05:18:31;;;;;;;3.67;2.92;;;;;;;17.51;100.00;90272.91;5031612;28;20021;-69
2022/06/10 05:20:57;;;;;;;3.13;2.60;;;;;;;17.63;100.00;90270.00;5031630;28;20565;-68
2022/06/10 05:23:24;;;;;;;3.92;2.85;;;;;;;17.56;100.00;90265.31;5031538;28;20075;-69
2022/06/10 05:25:51;;;;;;;2.83;2.40;;;;;;;17.18;100.00;90262.91;5031340;28;20033;-69
2022/06/10 05:28:17;;;;;;;3.13;2.08;;;;;;;17.44;100.00;90272.84;5031687;28;20021;-69
2022/06/10 05:30:43;;;;;;;2.53;2.20;;;;;;;17.77;100.00;90266.72;5031182;28;20487;-69
2022/06/10 05:33:11;;;;;;;2.55;1.83;;;;;;;18.05;100.00;90267.03;5021448;28;20018;-70
2022/06/10 05:35:37;;;;;;;5.10;2.28;;;;;;;17.99;100.00;90268.50;5011544;28;20033;-69
2022/06/10 05:38:03;;;;;;;2.50;2.05;;;;;;;17.71;100.00;90262.81;5011579;28;20457;-70
2022/06/10 05:40:30;;;;;;;2.03;1.80;;;;;;;17.90;100.00;90276.09;5011555;28;20068;-69
2022/06/10 05:42:55;;;;;;;2.83;2.03;;;;;;;18.35;100.00;90276.91;5011320;28;20041;-68
2022/06/10 05:45:22;;;;;;;2.50;2.00;;;;;;;18.97;100.00;90274.34;5011306;28;20030;-69
2022/06/10 05:47:50;;;;;;;1.92;1.73;;;;;;;21.97;100.00;90270.91;5011405;28;20149;-69
2022/06/10 05:50:24;;;;;;;4.05;2.22;;;;;;;24.85;85.46;90270.16;5011343;28;20029;-69
2022/06/10 05:52:49;;;;;;;2.08;1.90;;;;;;;24.27;79.05;90269.38;5011432;28;20498;-70
2022/06/10 05:55:15;;;;;;;1.92;1.73;;;;;;;22.63;89.61;90265.53;5011249;28;20088;-70
2022/06/10 05:57:41;;;;;;;2.00;1.80;;;;;;;23.29;92.81;90255.31;5011307;28;20068;-70
2022/06/10 06:00:13;;;;;;;3.03;1.88;;;;;;;22.27;86.93;90265.00;5011393;28;20022;-70
2022/06/10 06:02:40;;;;;;;3.83;2.10;;;;;;;23.66;87.33;90266.59;5011403;28;20038;-70
2022/06/10 06:05:07;;;;;;;2.88;2.05;;;;;;;23.26;80.59;90264.25;5010939;28;20073;-70
2022/06/10 06:07:33;;;;;;;2.30;1.90;;;;;;;20.85;93.80;90260.72;5011236;28;20519;-70
2022/06/10 06:09:59;;;;;;;10.18;7.97;;;;;;;20.40;100.00;90263.00;5011211;28;20129;-70
2022/06/10 06:12:24;;;;;;;2.33;1.98;;;;;;;20.04;100.00;90262.94;5011261;28;20026;-69
2022/06/10 06:14:50;;;;;;;3.63;2.10;;;;;;;19.28;100.00;90263.00;5011115;28;20041;-70
2022/06/10 06:17:16;;;;;;;2.83;2.00;;;;;;;18.81;100.00;90264.63;5011760;28;20038;-69
2022/06/10 06:19:42;;;;;;;3.30;2.25;;;;;;;19.84;100.00;90261.69;5015209;28;20034;-70
2022/06/10 06:22:08;;;;;;;2.58;2.20;;;;;;;24.11;83.61;90267.25;5015159;28;20022;-70
2022/06/10 06:24:36;;;;;;;2.20;1.90;;;;;;;21.70;88.40;90265.97;5014961;28;20152;-69
2022/06/10 06:27:02;;;;;;;4.35;2.30;;;;;;;21.03;100.00;90266.13;5014948;28;20025;-68
2022/06/10 06:29:29;;;;;;;2.25;1.90;;;;;;;21.16;100.00;90270.75;5014883;28;20124;-69
2022/06/10 06:31:55;;;;;;;2.38;2.15;;;;;;;20.83;100.00;90271.16;5015181;28;20045;-69
2022/06/10 06:34:21;;;;;;;3.75;2.25;;;;;;;20.69;100.00;90279.25;5014817;28;20042;-69
2022/06/10 06:36:49;;;;;;;2.38;1.77;;;;;;;19.98;100.00;90280.63;5014966;28;20042;-69
2022/06/10 06:39:18;;;;;;;2.42;2.08;;;;;;;20.30;100.00;90286.13;5014804;28;20101;-69
2022/06/10 06:41:44;;;;;;;3.67;2.17;;;;;;;20.22;100.00;90289.19;5014802;28;20112;-69
2022/06/10 06:44:09;;;;;;;2.33;1.80;;;;;;;20.24;100.00;90290.38;5014645;28;20112;-68
2022/06/10 06:46:37;;;;;;;3.03;2.20;;;;;;;21.13;100.00;90278.84;5014724;28;20451;-67
2022/06/10 06:49:06;;;;;;;2.13;1.70;;;;;;;23.12;90.32;90277.97;5014631;28;20415;-69
2022/06/10 06:51:32;;;;;;;2.13;1.80;;;;;;;23.91;83.20;90286.13;5014714;28;20072;-68
2022/06/10 06:53:59;;;;;;;2.60;1.67;;;;;;;22.31;81.00;90277.34;5014487;28;20033;-69
2022/06/10 06:56:25;;;;;;;1.80;1.70;;;;;;;21.86;91.80;90286.44;5014484;28;20057;-69
2022/06/10 06:58:51;;;;;;;1.90;1.80;;;;;;;23.16;86.08;90280.63;5014525;28;20030;-69
2022/06/10 07:01:17;;;;;;;2.33;1.73;;;;;;;23.29;77.64;90268.88;5014650;28;20380;-70
2022/06/10 07:03:42;;;;;;;3.35;2.10;;;;;;;21.59;85.26;90273.34;5014219;28;20025;-72
2022/06/10 07:06:08;;;;;;;3.05;2.55;;;;;;;21.28;100.00;90277.69;5013989;28;20052;-69
2022/06/10 07:08:33;;;;;;;4.75;2.50;;;;;;;21.07;100.00;90277.69;5015016;28;20499;-69
2022/06/10 07:11:01;;;;;;;4.13;2.63;;;;;;;20.61;100.00;90279.25;5033921;28;20483;-69
2022/06/10 07:13:28;;;;;;;3.25;2.67;;;;;;;22.20;96.66;90281.28;5033740;28;20110;-69
2022/06/10 07:15:54;;;;;;;4.97;2.65;;;;;;;24.03;73.52;90280.16;5033751;28;20044;-69
2022/06/10 07:18:21;;;;;;;3.15;2.42;;;;;;;27.26;60.38;90280.34;5033864;28;20026;-69
2022/06/10 07:20:47;;;;;;;2.97;2.67;;;;;;;30.72;53.99;90279.75;5033569;28;20037;-66
2022/06/10 07:23:13;;;;;;;2.22;2.03;;;;;;;31.25;49.60;90296.22;5033272;28;20104;-66
2022/06/10 07:25:38;;;;;;;3.65;2.50;;;;;;;28.85;54.55;90297.22;5033408;28;20120;-68
2022/06/10 07:28:04;;;;;;;2.72;2.30;;;;;;;25.93;59.72;90293.25;5033493;28;20109;-67
2022/06/10 07:30:32;;;;;;;2.80;2.22;;;;;;;24.22;66.05;90295.06;5033589;28;20033;-68
2022/06/10 07:32:58;;;;;;;3.15;2.70;;;;;;;25.83;69.89;90283.31;5033540;28;20057;-68
2022/06/10 07:35:24;;;;;;;2.03;1.80;;;;;;;29.67;51.27;90285.75;5033590;28;20077;-69
2022/06/10 07:37:50;;;;;;;2.38;1.65;;;;;;;27.78;53.01;90293.16;5033557;28;20404;-69
2022/06/10 07:43:05;;;;;;;3.13;2.22;;;;;;;25.13;66.01;90285.31;5033776;28;20096;-67
2022/06/10 07:45:32;;;;;;;2.75;1.90;;;;;;;26.17;61.24;90285.00;5033509;28;20072;-68
2022/06/10 07:47:57;;;;;;;4.75;2.17;;;;;;;26.58;60.96;90286.53;5033381;28;20064;-68
2022/06/10 07:50:23;;;;;;;2.00;1.80;;;;;;;25.21;59.88;90306.53;5033358;28;20029;-68
2022/06/10 07:52:50;;;;;;;1.70;1.60;;;;;;;23.38;65.22;90298.28;5027723;28;20403;-66
2022/06/10 07:55:16;;;;;;;3.78;2.70;;;;;;;22.95;76.70;90292.44;5012831;28;20037;-64
2022/06/10 07:57:42;;;;;;;3.38;2.63;;;;;;;22.82;75.09;90289.44;5013305;28;20515;-64
2022/06/10 08:00:10;;;;;;;2.63;2.15;;;;;;;23.12;76.67;90290.75;5012724;28;20072;-64
2022/06/10 08:02:37;;;;;;;2.63;2.20;;;;;;;23.06;76.27;90292.38;5013139;28;20053;-65
2022/06/10 08:05:03;;;;;;;4.55;2.17;;;;;;;22.86;74.47;90301.00;5019126;28;20095;-65
2022/06/10 08:07:29;;;;;;;2.60;2.40;;;;;;;22.08;78.56;90301.44;5032748;28;20446;-66
2022/06/10 08:09:54;;;;;;;4.00;2.47;;;;;;;21.79;80.57;90319.72;5033108;28;20037;-68
2022/06/10 08:12:19;;;;;;;3.10;2.60;;;;;;;21.13;89.77;90314.78;5032748;28;20026;-66
2022/06/10 08:14:45;;;;;;;3.10;2.50;;;;;;;20.29;94.65;90316.22;5032311;28;20076;-66
2022/06/10 08:17:10;;;;;;;5.25;2.38;;;;;;;19.53;100.00;90318.97;5032729;28;20621;-66
2022/06/10 08:19:36;;;;;;;3.15;2.67;;;;;;;19.60;100.00;90327.16;5032686;28;20082;-65
2022/06/10 08:24:45;;;;;;;3.60;2.65;;;;;;;19.15;100.00;90331.84;5032681;28;20510;-66
2022/06/10 08:27:11;;;;;;;3.55;2.38;;;;;;;19.23;100.00;90325.34;5031158;28;20022;-67
2022/06/10 08:29:36;;;;;;;4.18;2.47;;;;;;;19.33;100.00;90313.88;5032021;28;20030;-67
2022/06/10 08:32:02;;;;;;;2.42;2.05;;;;;;;19.77;100.00;90328.38;5032329;28;20464;-67
2022/06/10 08:34:27;;;;;;;3.03;2.42;;;;;;;19.74;100.00;90321.81;5032182;28;20060;-67
2022/06/10 08:36:53;;;;;;;2.97;2.28;;;;;;;20.32;100.00;90337.06;5032145;28;20030;-67
2022/06/10 08:39:18;;;;;;;2.95;2.40;;;;;;;19.93;100.00;90337.72;5032144;28;20033;-66
2022/06/10 08:41:59;;;;;;;3.80;2.45;;;;;;;19.60;100.00;90335.25;5031968;28;20160;-66
2022/06/10 08:44:24;;;;;;;2.25;2.05;;;;;;;18.49;100.00;90339.75;5031664;28;20041;-68
2022/06/10 08:47:17;;;;;;;4.75;2.60;;;;;;;18.38;100.00;90338.09;5031967;28;20021;-66
2022/06/10 08:49:45;;;;;;;3.08;2.78;;;;;;;18.54;100.00;90341.34;5033829;28;20029;-66
2022/06/10 08:52:36;;;;;;;3.10;2.38;;;;;;;18.45;100.00;90341.63;5031988;28;20037;-67
2022/06/10 08:55:22;;;;;;;3.53;2.70;;;;;;;18.36;100.00;90345.78;5031809;28;20080;-66
2022/06/10 08:57:48;;;;;;;8.20;2.85;;;;;;;18.54;100.00;90344.03;5032814;28;20121;-65
2022/06/10 09:00:22;;;;;;;2.88;2.10;;;;;;;18.40;100.00;90347.38;5031914;28;20048;-67
2022/06/10 09:02:47;;;;;;;2.88;2.20;;;;;;;18.39;100.00;90350.44;5031721;28;20047;-66
2022/06/10 09:05:16;;;;;;;3.35;2.85;;;;;;;18.56;100.00;90341.75;5031279;28;20571;-66
2022/06/10 09:07:52;;;;;;;4.13;3.15;;;;;;;19.71;100.00;90344.16;5031679;28;20056;-66
2022/06/10 09:10:32;;;;;;;2.72;2.33;;;;;;;21.66;100.00;90335.63;5031596;28;20025;-67
2022/06/10 09:13:24;;;;;;;2.53;2.30;;;;;;;22.82;100.00;90337.44;5031589;28;20404;-66
2022/06/10 09:15:57;;;;;;;2.38;2.10;;;;;;;24.13;89.66;90330.88;5031620;28;20052;-66
2022/06/10 09:18:29;;;;;;;2.33;2.00;;;;;;;26.34;66.96;90338.41;5031373;28;20030;-67
2022/06/10 09:21:24;;;;;;;4.72;2.15;;;;;;;28.07;59.52;90354.09;5031308;28;20450;-67
2022/06/10 09:23:52;;;;;;;3.08;2.10;;;;;;;27.24;61.24;90351.00;5032752;28;20045;-67
2022/06/10 09:26:49;;;;;;;2.13;1.90;;;;;;;26.15;63.68;90342.69;5051031;28;20025;-67
2022/06/10 09:29:16;;;;;;;2.15;1.98;;;;;;;24.77;73.53;90340.19;5050647;28;20032;-67
2022/06/10 09:31:53;;;;;;;1.70;1.60;;;;;;;24.58;72.76;90341.63;5051106;28;20021;-66
2022/06/10 09:34:24;;;;;;;2.63;1.92;;;;;;;25.17;73.60;90338.50;5052263;28;20092;-67
2022/06/10 09:37:02;;;;;;;2.20;1.80;;;;;;;28.51;64.07;90340.84;5049560;28;20480;-67
2022/06/10 09:42:48;;;;;;;2.05;1.63;;;;;;;27.12;60.56;90336.81;5051088;28;20071;-66
2022/06/10 09:45:16;;;;;;;2.53;1.88;;;;;;;24.69;63.14;90350.41;5050445;28;20029;-66
2022/06/10 09:47:53;;;;;;;1.98;1.80;;;;;;;25.77;62.68;90342.22;5051000;28;20037;-65
2022/06/10 09:50:35;;;;;;;3.13;1.70;;;;;;;25.88;64.92;90342.81;5050868;28;20029;-65
2022/06/10 09:53:27;;;;;;;3.03;1.75;;;;;;;25.06;67.13;90351.50;5028900;28;20034;-65
2022/06/10 09:56:23;;;;;;;2.95;1.70;;;;;;;25.13;63.50;90350.63;5028732;28;20447;-66
2022/06/10 09:59:10;;;;;;;4.45;2.20;;;;;;;24.03;68.30;90361.69;5029253;28;20502;-67
2022/06/10 10:01:58;;;;;;;2.75;2.15;;;;;;;24.01;73.90;90366.75;5028780;28;20076;-66
2022/06/10 10:04:48;;;;;;;3.17;1.83;;;;;;;23.49;71.74;90342.38;5030449;28;20038;-68
2022/06/10 10:07:40;;;;;;;3.35;2.42;;;;;;;22.95;74.40;90347.47;5030528;28;20029;-67
2022/06/10 10:10:27;;;;;;;3.40;2.17;;;;;;;23.32;77.47;90340.59;5030661;28;20021;-66
2022/06/10 10:13:20;;;;;;;3.63;2.55;;;;;;;23.55;76.77;90346.22;5029436;28;20425;-65
2022/06/10 10:16:16;;;;;;;3.40;2.13;;;;;;;24.22;73.21;90338.56;5030537;28;20419;-66
2022/06/10 10:19:11;;;;;;;6.53;2.42;;;;;;;25.58;71.51;90335.50;5008773;28;20079;-66
2022/06/10 10:21:50;;;;;;;2.45;2.13;;;;;;;28.52;60.22;90321.25;5029819;28;20449;-67
2022/06/10 10:24:24;;;;;;;2.95;2.30;;;;;;;30.88;53.97;90328.19;5030261;28;20029;-66
2022/06/10 10:26:51;;;;;;;2.05;1.80;;;;;;;32.18;46.93;90326.28;5030244;28;20057;-67
2022/06/10 10:29:26;;;;;;;2.78;2.08;;;;;;;31.51;49.66;90327.00;5029592;28;20040;-66
2022/06/10 10:32:11;;;;;;;2.38;1.98;;;;;;;30.24;47.49;90335.94;5028529;28;20507;-66
2022/06/10 10:34:41;;;;;;;3.05;1.92;;;;;;;29.21;51.35;90340.00;5028304;28;20473;-65
2022/06/10 10:37:29;;;;;;;2.72;2.28;;;;;;;29.19;49.86;90340.44;5030348;28;20083;-67
2022/06/10 10:40:00;;;;;;;2.33;2.00;;;;;;;30.34;49.52;90332.84;5029114;28;20060;-67
2022/06/10 10:42:34;;;;;;;2.50;1.80;;;;;;;30.56;46.91;90330.09;5029328;28;20090;-66
2022/06/10 10:45:36;;;;;;;3.53;2.10;;;;;;;27.25;52.50;90320.53;5030144;28;20072;-65
2022/06/10 10:48:24;;;;;;;4.68;2.30;;;;;;;25.97;55.34;90332.13;4991223;28;20030;-64
2022/06/10 10:51:05;;;;;;;2.10;1.90;;;;;;;25.79;57.76;90330.91;5029264;28;20041;-65
2022/06/10 10:53:50;;;;;;;2.42;2.10;;;;;;;25.51;58.30;90329.41;5030072;28;20025;-65
2022/06/10 10:56:16;;;;;;;2.38;1.98;;;;;;;26.04;62.08;90319.56;5028235;28;20031;-64
2022/06/10 10:58:54;;;;;;;2.17;1.98;;;;;;;25.99;60.69;90334.41;5029784;28;20083;-66
2022/06/10 11:01:44;;;;;;;4.40;2.28;;;;;;;27.68;55.79;90322.28;5030154;28;20037;-65
2022/06/10 11:04:27;;;;;;;3.08;2.13;;;;;;;30.53;48.79;90330.22;5031971;28;20029;-66
2022/06/10 11:07:18;;;;;;;2.25;2.05;;;;;;;30.69;50.97;90321.84;5032972;28;20111;-65
2022/06/10 11:09:50;;;;;;;2.72;2.22;;;;;;;30.34;50.32;90312.88;5034126;28;20033;-65
2022/06/10 11:12:36;;;;;;;3.17;2.15;;;;;;;30.59;49.52;90307.25;5033282;28;20483;-65
2022/06/10 11:15:16;;;;;;;2.35;2.10;;;;;;;29.56;51.54;90312.72;5032881;28;20042;-64
2022/06/10 11:17:43;;;;;;;4.40;3.55;;;;;;;28.02;55.31;90305.41;5034575;28;20510;-65
2022/06/10 11:20:14;;;;;;;2.65;2.40;;;;;;;26.34;58.36;90307.66;5033800;28;20053;-65
2022/06/10 11:22:43;;;;;;;2.33;2.13;;;;;;;25.73;58.42;90306.09;5033563;28;20035;-64
2022/06/10 11:25:14;;;;;;;3.10;2.40;;;;;;;25.12;58.85;90317.19;5032929;28;20037;-65
2022/06/10 11:27:57;;;;;;;2.92;2.28;;;;;;;24.38;62.06;90313.53;5033262;28;20037;-65
2022/06/10 11:30:32;;;;;;;3.13;2.33;;;;;;;24.05;62.31;90318.56;5033689;28;20033;-65
2022/06/10 11:33:06;;;;;;;3.85;2.53;;;;;;;23.95;64.01;90303.13;5033361;28;20040;-65
2022/06/10 11:35:40;;;;;;;2.65;2.33;;;;;;;24.19;64.33;90304.81;5032747;28;20525;-64
2022/06/10 11:38:09;;;;;;;6.10;2.67;;;;;;;24.47;65.09;90302.94;5033193;28;20120;-65
2022/06/10 11:40:39;;;;;;;3.20;2.33;;;;;;;24.18;64.47;90305.22;5033129;28;20033;-65
2022/06/10 11:43:18;;;;;;;3.25;2.88;;;;;;;25.48;64.84;90311.16;5032744;28;20037;-65
2022/06/10 11:45:47;;;;;;;4.78;2.88;;;;;;;26.30;59.88;90312.41;5032567;28;20021;-65
2022/06/10 11:48:25;;;;;;;55.05;29.55;;;;;;;25.41;63.13;90322.19;5033012;28;20079;-66
2022/06/10 11:51:02;;;;;;;5.55;3.58;;;;;;;24.96;65.15;90309.63;5032896;28;20109;-67
2022/06/10 11:53:39;;;;;;;4.00;2.60;;;;;;;24.18;64.10;90321.53;5031478;28;20388;-67
2022/06/10 12:01:51;;;;;;;3.17;2.88;;;;;;;23.59;69.03;90302.75;5033065;28;20041;-67
2022/06/10 12:04:27;;;;;;;2.97;2.65;;;;;;;25.21;61.18;90316.66;5032720;28;20036;-66
2022/06/10 12:07:07;;;;;;;3.67;2.90;;;;;;;24.52;62.45;90316.06;5032082;28;20102;-65
2022/06/10 12:09:41;;;;;;;3.95;3.20;;;;;;;23.82;67.28;90305.59;5032682;28;20029;-65
2022/06/10 12:12:33;;;;;;;8.68;5.18;;;;;;;24.11;67.11;90314.22;5032105;28;20037;-66
2022/06/10 12:15:11;;;;;;;11.35;6.55;;;;;;;24.44;64.58;90311.91;5027907;28;20033;-65